createdAt,value
2017-09-24T12:34:00.710Z,11.98
2017-09-24T12:35:06.717Z,15.32
2017-09-24T12:36:10.812Z,6.78
2017-09-24T12:37:16.739Z,10.85
2017-09-24T12:38:20.548Z,10.93
2017-09-24T12:39:24.551Z,7.28
2017-09-24T12:40:28.477Z,8.25
2017-09-24T12:41:33.442Z,8.30
2017-09-24T12:42:37.942Z,11.48
2017-09-24T12:43:41.787Z,7.18
2017-09-24T12:44:46.701Z,6.28
2017-09-24T12:45:51.104Z,23.48
2017-09-24T12:51:07.826Z,8.20
2017-09-24T12:52:13.421Z,7.35
2017-09-24T12:53:18.114Z,6.68
2017-09-24T12:54:23.207Z,7.55
2017-09-24T12:55:27.359Z,7.80
2017-09-24T12:56:30.815Z,6.22
2017-09-24T12:57:36.203Z,8.23
2017-09-24T12:58:40.045Z,5.93
2017-09-24T12:59:45.208Z,9.00
2017-09-24T13:00:50.485Z,10.18
2017-09-24T13:01:55.102Z,12.57
2017-09-24T13:02:58.898Z,21.20
2017-09-24T13:04:03.410Z,21.55
2017-09-24T13:05:08.389Z,25.52
2017-09-24T13:06:14.797Z,22.87
2017-09-24T13:07:20.206Z,3.30
2017-09-24T13:08:24.473Z,9.13
2017-09-24T13:09:28.527Z,12.77
2017-09-24T13:10:33.866Z,16.08
2017-09-24T13:11:38.296Z,17.65
2017-09-24T13:12:42.211Z,17.80
2017-09-24T13:13:47.106Z,20.77
2017-09-24T13:14:51.863Z,23.02
2017-09-24T13:15:56.472Z,19.67
2017-09-24T13:17:01.815Z,21.30
2017-09-24T13:18:06.669Z,14.77
2017-09-24T13:19:11.741Z,18.45
2017-09-24T13:20:18.062Z,16.17
2017-09-24T13:21:21.866Z,18.87
2017-09-24T13:22:26.252Z,9.82
2017-09-24T13:23:30.681Z,7.50
2017-09-24T13:24:34.641Z,6.90
2017-09-24T13:25:39.092Z,11.07
2017-09-24T13:26:43.700Z,9.57
2017-09-24T13:27:48.991Z,15.43
2017-09-24T13:28:53.492Z,9.05
2017-09-24T13:29:58.783Z,10.23
2017-09-24T13:31:03.595Z,8.82
2017-09-24T13:32:07.663Z,9.80
2017-09-24T13:34:28.143Z,11.25
2017-09-24T13:35:33.949Z,6.82
2017-09-24T13:36:38.243Z,7.25
2017-09-24T13:37:42.283Z,7.40
2017-09-24T13:38:46.562Z,6.37
2017-09-24T13:39:51.091Z,10.18
2017-09-24T13:40:56.013Z,10.07
2017-09-24T13:42:00.899Z,9.23
2017-09-24T13:43:05.499Z,9.35
2017-09-24T13:44:10.152Z,11.05
2017-09-24T13:45:15.023Z,7.87
2017-09-24T13:46:20.073Z,8.27
2017-09-24T13:47:24.463Z,7.60
2017-09-24T13:48:30.490Z,11.70
2017-09-24T13:49:35.784Z,9.02
2017-09-24T13:50:41.081Z,7.28
2017-09-24T13:51:46.013Z,9.20
2017-09-24T13:52:49.999Z,11.55
2017-09-24T13:53:54.095Z,12.27
2017-09-24T13:54:57.264Z,9.45
2017-09-24T13:56:01.175Z,10.25
2017-09-24T13:57:06.482Z,9.88
2017-09-24T13:58:11.034Z,11.98
2017-09-24T13:59:15.853Z,8.10
2017-09-24T14:00:20.569Z,8.10
2017-09-24T14:01:25.891Z,7.10
2017-09-24T14:02:30.526Z,8.43
2017-09-24T14:03:35.422Z,7.57
2017-09-24T14:04:39.337Z,14.45
2017-09-24T14:05:41.899Z,3.90
2017-09-24T14:06:45.470Z,6.95
2017-09-24T14:07:48.113Z,7.65
2017-09-24T18:41:07.604Z,83.57
2017-09-24T18:42:10.378Z,82.43
2017-09-24T18:43:13.776Z,76.20
2017-09-24T18:44:16.871Z,76.53
2017-09-24T18:45:19.955Z,78.50
2017-09-24T18:46:23.255Z,84.57
2017-09-24T18:47:26.506Z,74.68
2017-09-24T18:48:30.199Z,78.50
2017-09-24T18:49:34.187Z,76.93
2017-09-24T18:50:37.887Z,79.32
2017-09-24T18:51:42.910Z,79.65
2017-09-24T18:52:45.883Z,80.47
2017-09-24T18:53:49.801Z,74.18
2017-09-24T18:54:54.532Z,74.43
2017-09-24T18:55:58.196Z,73.80
2017-09-24T18:57:01.079Z,69.70
2017-09-24T18:58:04.392Z,71.00
2017-09-24T18:59:07.437Z,76.57
2017-09-24T19:00:11.654Z,76.07
2017-09-24T19:01:15.039Z,70.37
2017-09-24T19:02:19.560Z,77.93
2017-09-24T19:03:24.470Z,65.47
2017-09-24T19:04:27.531Z,67.85
2017-09-24T19:05:30.637Z,66.18
2017-09-24T19:06:34.311Z,63.33
2017-09-24T19:07:37.698Z,70.00
2017-09-24T19:08:40.976Z,66.55
2017-09-24T19:09:44.901Z,70.03
2017-09-24T19:10:47.979Z,63.03
